Terminal Aerodrome Forecast
Issued by NWS

Home | Current Version | Previous Version | Text Only | Print | Product List | Glossary On
Versions: 1 2 3 4 5 6 7 8 9 10 11 12 13 14
000
FTPQ31 PGUM 192323
TAFGUM
TAF

TAF
PKMJ 192323Z 2000/2024 VRB05KT P6SM VCTS SCT014CB BKN050 OVC120
      TEMPO 2000/2004 3SM +SHRA BKN012 OVC030
     FM200800 12007KT P6SM VCSH SCT015 BKN050 BKN120=

USA.gov is the U.S. government's official web portal to all federal, state and local government web resources and services.